N636CB KBUF-KBUF
Flight info
| Callsign | N636CB |
|---|---|
| Flight time | 0h 18m |
| Altitude | VFR/030 |
| Route | PATTERN |
| Aircraft | C172/L-DOV/C |
Departure
| Time | 2026-05-08 02:25 |
|---|---|
| Airport | Buffalo Niagara International Airport (KBUF) |
Arrival
| Time | 2026-05-08 02:44 |
|---|---|
| Airport | Buffalo Niagara International Airport (KBUF) |
| Time | Latitude | Longitude | Altitude | Speed | Heading |
|---|---|---|---|---|---|
| 2026-05-08 02:17 | 42.94683 | -78.73443 | 707 ft | 0 kts | 210° |
| 2026-05-08 02:21 | 42.94649 | -78.73448 | 707 ft | 6 kts | 113° |
| 2026-05-08 02:22 | 42.94624 | -78.73420 | 707 ft | 4 kts | 201° |
| 2026-05-08 02:22 | 42.94608 | -78.73455 | 707 ft | 7 kts | 276° |
| 2026-05-08 02:22 | 42.94587 | -78.73498 | 706 ft | 6 kts | 180° |
| 2026-05-08 02:22 | 42.94532 | -78.73498 | 706 ft | 11 kts | 180° |
| 2026-05-08 02:23 | 42.94439 | -78.73495 | 706 ft | 11 kts | 181° |
| 2026-05-08 02:23 | 42.94425 | -78.73495 | 706 ft | 0 kts | 179° |
| 2026-05-08 02:23 | 42.94424 | -78.73495 | 706 ft | 0 kts | 179° |
| 2026-05-08 02:24 | 42.94367 | -78.73494 | 701 ft | 21 kts | 180° |
| 2026-05-08 02:24 | 42.94244 | -78.73352 | 706 ft | 41 kts | 127° |
| 2026-05-08 02:24 | 42.93981 | -78.72873 | 714 ft | 82 kts | 128° |
| 2026-05-08 02:25 | 42.93634 | -78.72201 | 891 ft | 87 kts | 128° |
| 2026-05-08 02:25 | 42.93333 | -78.71603 | 1159 ft | 83 kts | 124° |
| 2026-05-08 02:25 | 42.93017 | -78.70880 | 1312 ft | 91 kts | 117° |
| 2026-05-08 02:25 | 42.92776 | -78.70067 | 1502 ft | 95 kts | 110° |
| 2026-05-08 02:26 | 42.92872 | -78.69161 | 1565 ft | 110 kts | 46° |
| 2026-05-08 02:26 | 42.93545 | -78.68672 | 1730 ft | 107 kts | 20° |
| 2026-05-08 02:26 | 42.94258 | -78.68349 | 1852 ft | 109 kts | 16° |
| 2026-05-08 02:26 | 42.94982 | -78.68102 | 1922 ft | 107 kts | 12° |
| 2026-05-08 02:27 | 42.95686 | -78.67838 | 2001 ft | 103 kts | 33° |
| 2026-05-08 02:27 | 42.96108 | -78.67070 | 2023 ft | 102 kts | 57° |
| 2026-05-08 02:27 | 42.96470 | -78.66256 | 2038 ft | 99 kts | 58° |
| 2026-05-08 02:27 | 42.96820 | -78.65444 | 1997 ft | 100 kts | 59° |
| 2026-05-08 02:28 | 42.97191 | -78.64629 | 2015 ft | 102 kts | 59° |
| 2026-05-08 02:28 | 42.97764 | -78.64194 | 1929 ft | 103 kts | 349° |
| 2026-05-08 02:28 | 42.98262 | -78.64862 | 1795 ft | 105 kts | 297° |
| 2026-05-08 02:28 | 42.98574 | -78.65739 | 1741 ft | 101 kts | 294° |
| 2026-05-08 02:29 | 42.98743 | -78.66643 | 1630 ft | 102 kts | 264° |
| 2026-05-08 02:29 | 42.98349 | -78.67435 | 1466 ft | 106 kts | 220° |
| 2026-05-08 02:29 | 42.97786 | -78.68057 | 1309 ft | 98 kts | 222° |
| 2026-05-08 02:29 | 42.97318 | -78.68657 | 1175 ft | 86 kts | 225° |
| 2026-05-08 02:30 | 42.96907 | -78.69189 | 1111 ft | 80 kts | 226° |
| 2026-05-08 02:30 | 42.96508 | -78.69712 | 1052 ft | 78 kts | 225° |
| 2026-05-08 02:30 | 42.96129 | -78.70208 | 1001 ft | 71 kts | 225° |
| 2026-05-08 02:30 | 42.95763 | -78.70692 | 967 ft | 76 kts | 225° |
| 2026-05-08 02:31 | 42.95378 | -78.71195 | 928 ft | 76 kts | 226° |
| 2026-05-08 02:31 | 42.95008 | -78.71685 | 835 ft | 74 kts | 226° |
| 2026-05-08 02:31 | 42.94636 | -78.72181 | 745 ft | 73 kts | 225° |
| 2026-05-08 02:31 | 42.94283 | -78.72647 | 718 ft | 73 kts | 224° |
| 2026-05-08 02:32 | 42.93841 | -78.73219 | 771 ft | 96 kts | 223° |
| 2026-05-08 02:32 | 42.93339 | -78.73861 | 928 ft | 101 kts | 225° |
| 2026-05-08 02:32 | 42.92832 | -78.74534 | 1105 ft | 102 kts | 226° |
| 2026-05-08 02:32 | 42.92322 | -78.75184 | 1269 ft | 99 kts | 222° |
| 2026-05-08 02:33 | 42.91764 | -78.75721 | 1368 ft | 101 kts | 196° |
| 2026-05-08 02:33 | 42.91104 | -78.75402 | 1372 ft | 111 kts | 130° |
| 2026-05-08 02:33 | 42.91022 | -78.74398 | 1427 ft | 113 kts | 68° |
| 2026-05-08 02:33 | 42.91476 | -78.73532 | 1468 ft | 114 kts | 47° |
| 2026-05-08 02:34 | 42.92053 | -78.72766 | 1495 ft | 116 kts | 44° |
| 2026-05-08 02:34 | 42.92645 | -78.72024 | 1553 ft | 116 kts | 40° |
| 2026-05-08 02:34 | 42.93275 | -78.71328 | 1569 ft | 116 kts | 38° |
| 2026-05-08 02:34 | 42.93908 | -78.70654 | 1612 ft | 114 kts | 38° |
| 2026-05-08 02:35 | 42.94529 | -78.69971 | 1630 ft | 116 kts | 41° |
| 2026-05-08 02:35 | 42.95135 | -78.69277 | 1748 ft | 113 kts | 38° |
| 2026-05-08 02:35 | 42.95765 | -78.68622 | 1769 ft | 114 kts | 36° |
| 2026-05-08 02:35 | 42.96428 | -78.68086 | 1782 ft | 110 kts | 14° |
| 2026-05-08 02:36 | 42.97044 | -78.68547 | 1565 ft | 117 kts | 283° |
| 2026-05-08 02:36 | 42.96678 | -78.69470 | 1400 ft | 112 kts | 224° |
| 2026-05-08 02:36 | 42.96162 | -78.70201 | 1147 ft | 103 kts | 226° |
| 2026-05-08 02:36 | 42.95691 | -78.70809 | 996 ft | 83 kts | 225° |
| 2026-05-08 02:37 | 42.95312 | -78.71295 | 896 ft | 70 kts | 225° |
| 2026-05-08 02:37 | 42.94960 | -78.71754 | 818 ft | 70 kts | 226° |
| 2026-05-08 02:37 | 42.94611 | -78.72214 | 742 ft | 69 kts | 225° |
| 2026-05-08 02:37 | 42.94278 | -78.72652 | 716 ft | 67 kts | 225° |
| 2026-05-08 02:38 | 42.93857 | -78.73193 | 754 ft | 94 kts | 223° |
| 2026-05-08 02:38 | 42.93355 | -78.73837 | 907 ft | 100 kts | 224° |
| 2026-05-08 02:38 | 42.92851 | -78.74483 | 1117 ft | 100 kts | 223° |
| 2026-05-08 02:38 | 42.92308 | -78.75047 | 1252 ft | 99 kts | 204° |
| 2026-05-08 02:39 | 42.91653 | -78.74904 | 1228 ft | 104 kts | 137° |
| 2026-05-08 02:39 | 42.91447 | -78.73974 | 1201 ft | 108 kts | 79° |
| 2026-05-08 02:39 | 42.91781 | -78.73115 | 1268 ft | 102 kts | 53° |
| 2026-05-08 02:39 | 42.92258 | -78.72359 | 1293 ft | 107 kts | 46° |
| 2026-05-08 02:40 | 42.92805 | -78.71669 | 1355 ft | 107 kts | 40° |
| 2026-05-08 02:40 | 42.93375 | -78.71031 | 1415 ft | 105 kts | 39° |
| 2026-05-08 02:40 | 42.93960 | -78.70433 | 1460 ft | 105 kts | 36° |
| 2026-05-08 02:40 | 42.94561 | -78.69832 | 1427 ft | 105 kts | 36° |
| 2026-05-08 02:41 | 42.95156 | -78.69244 | 1421 ft | 106 kts | 35° |
| 2026-05-08 02:41 | 42.95746 | -78.68682 | 1402 ft | 104 kts | 36° |
| 2026-05-08 02:41 | 42.96324 | -78.68092 | 1353 ft | 104 kts | 39° |
| 2026-05-08 02:41 | 42.96896 | -78.67511 | 1293 ft | 103 kts | 27° |
| 2026-05-08 02:42 | 42.97475 | -78.67776 | 1161 ft | 104 kts | 282° |
| 2026-05-08 02:42 | 42.97169 | -78.68610 | 1104 ft | 99 kts | 235° |
| 2026-05-08 02:42 | 42.96757 | -78.69346 | 1094 ft | 97 kts | 231° |
| 2026-05-08 02:42 | 42.96288 | -78.70021 | 1048 ft | 96 kts | 225° |
| 2026-05-08 02:43 | 42.95865 | -78.70564 | 1010 ft | 75 kts | 224° |
| 2026-05-08 02:43 | 42.95494 | -78.71042 | 948 ft | 74 kts | 225° |
| 2026-05-08 02:43 | 42.95125 | -78.71530 | 862 ft | 73 kts | 224° |
| 2026-05-08 02:43 | 42.94764 | -78.72015 | 783 ft | 72 kts | 224° |
| 2026-05-08 02:44 | 42.94417 | -78.72467 | 723 ft | 62 kts | 226° |
| 2026-05-08 02:44 | 42.94150 | -78.72816 | 713 ft | 45 kts | 223° |
| 2026-05-08 02:44 | 42.93990 | -78.73032 | 710 ft | 22 kts | 224° |
| 2026-05-08 02:44 | 42.93885 | -78.73163 | 708 ft | 19 kts | 224° |
| 2026-05-08 02:45 | 42.93795 | -78.73271 | 707 ft | 16 kts | 206° |
| 2026-05-08 02:45 | 42.93723 | -78.73278 | 702 ft | 16 kts | 161° |
| 2026-05-08 02:45 | 42.93729 | -78.73164 | 700 ft | 13 kts | 37° |
| 2026-05-08 02:45 | 42.93785 | -78.73093 | 706 ft | 9 kts | 44° |
| 2026-05-08 02:46 | 42.93825 | -78.73039 | 701 ft | 8 kts | 46° |
| 2026-05-08 02:46 | 42.93876 | -78.72972 | 706 ft | 13 kts | 44° |
| 2026-05-08 02:46 | 42.93952 | -78.72873 | 712 ft | 7 kts | 43° |
| 2026-05-08 02:46 | 42.93953 | -78.72871 | 711 ft | 0 kts | 43° |
| 2026-05-08 02:47 | 42.93954 | -78.72871 | 711 ft | 1 kts | 42° |
| 2026-05-08 02:47 | 42.94008 | -78.72804 | 710 ft | 21 kts | 41° |
| 2026-05-08 02:47 | 42.94094 | -78.72686 | 713 ft | 12 kts | 41° |
| 2026-05-08 02:47 | 42.94096 | -78.72633 | 712 ft | 9 kts | 191° |
| 2026-05-08 02:48 | 42.94037 | -78.72634 | 711 ft | 9 kts | 179° |
| 2026-05-08 02:48 | 42.93980 | -78.72634 | 710 ft | 8 kts | 181° |
| 2026-05-08 02:48 | 42.93894 | -78.72639 | 708 ft | 15 kts | 183° |
| 2026-05-08 02:48 | 42.93792 | -78.72674 | 709 ft | 14 kts | 221° |
| 2026-05-08 02:49 | 42.93790 | -78.72770 | 711 ft | 11 kts | 306° |
| 2026-05-08 02:49 | 42.93834 | -78.72851 | 709 ft | 11 kts | 307° |
| 2026-05-08 02:49 | 42.93892 | -78.72935 | 710 ft | 11 kts | 328° |
| 2026-05-08 02:49 | 42.93951 | -78.73007 | 710 ft | 15 kts | 303° |
| 2026-05-08 02:50 | 42.94014 | -78.73125 | 703 ft | 15 kts | 306° |
| 2026-05-08 02:50 | 42.94070 | -78.73233 | 702 ft | 13 kts | 308° |
| 2026-05-08 02:50 | 42.94130 | -78.73338 | 704 ft | 16 kts | 307° |
| 2026-05-08 02:50 | 42.94202 | -78.73470 | 703 ft | 15 kts | 307° |
| 2026-05-08 02:51 | 42.94245 | -78.73521 | 706 ft | 0 kts | 358° |
| 2026-05-08 02:51 | 42.94284 | -78.73504 | 704 ft | 17 kts | 31° |
| 2026-05-08 02:51 | 42.94415 | -78.73496 | 705 ft | 18 kts | 0° |
| 2026-05-08 02:52 | 42.94524 | -78.73466 | 706 ft | 15 kts | 39° |
| 2026-05-08 02:52 | 42.94598 | -78.73391 | 701 ft | 12 kts | 37° |
| 2026-05-08 02:52 | 42.94607 | -78.73331 | 700 ft | 8 kts | 203° |
| 2026-05-08 02:52 | 42.94588 | -78.73348 | 708 ft | 0 kts | 214° |